createdAt,value
2022-12-25T00:02:28.203Z,80.24
2022-12-25T00:04:55.843Z,80.11
2022-12-25T00:07:23.950Z,79.74
2022-12-25T00:09:51.589Z,79.48
2022-12-25T00:12:21.055Z,79.32
2022-12-25T00:14:48.697Z,79.83
2022-12-25T00:17:16.933Z,81.59
2022-12-25T00:19:44.419Z,82.50
2022-12-25T00:22:12.710Z,82.45
2022-12-25T00:24:40.644Z,82.06
2022-12-25T00:27:09.004Z,83.60
2022-12-25T00:29:38.207Z,83.65
2022-12-25T00:32:06.243Z,83.51
2022-12-25T00:34:33.956Z,83.43
2022-12-25T00:37:02.272Z,83.43
2022-12-25T00:39:29.774Z,82.99
2022-12-25T00:41:57.981Z,82.50
2022-12-25T00:44:25.532Z,82.48
2022-12-25T00:46:55.097Z,82.42
2022-12-25T00:49:23.722Z,81.86
2022-12-25T00:51:52.210Z,82.04
2022-12-25T00:54:20.737Z,81.44
2022-12-25T00:56:48.752Z,81.01
2022-12-25T00:59:16.395Z,81.00
2022-12-25T01:01:44.799Z,80.79
2022-12-25T01:04:14.061Z,81.35
2022-12-25T01:06:42.124Z,81.89
2022-12-25T01:09:09.602Z,82.70
2022-12-25T01:11:37.767Z,82.63
2022-12-25T01:14:05.296Z,82.06
2022-12-25T01:16:33.348Z,81.44
2022-12-25T01:19:01.062Z,81.02
2022-12-25T01:21:30.697Z,81.42
2022-12-25T01:23:58.643Z,81.09
2022-12-25T01:26:27.547Z,81.27
2022-12-25T01:28:55.437Z,80.50
2022-12-25T01:31:24.437Z,80.80
2022-12-25T01:33:52.021Z,80.48
2022-12-25T01:36:22.127Z,80.31
2022-12-25T01:38:52.361Z,80.38
2022-12-25T01:41:23.297Z,80.52
2022-12-25T01:44:07.557Z,79.35
2022-12-25T01:46:36.323Z,78.99
2022-12-25T01:49:07.405Z,78.47
2022-12-25T01:51:38.980Z,79.04
2022-12-25T01:54:12.465Z,78.94
2022-12-25T01:56:43.637Z,80.84
2022-12-25T01:59:13.758Z,81.67
2022-12-25T02:01:41.877Z,80.65
2022-12-25T02:04:19.048Z,80.80
2022-12-25T02:06:48.619Z,80.37
2022-12-25T02:09:18.648Z,80.35
2022-12-25T02:11:47.117Z,80.64
2022-12-25T02:14:14.884Z,81.79
2022-12-25T02:16:57.916Z,82.23
2022-12-25T02:19:37.786Z,82.95
2022-12-25T02:22:16.046Z,83.13
2022-12-25T02:24:56.346Z,82.75
2022-12-25T02:28:01.192Z,82.01
2022-12-25T02:30:36.171Z,81.33
2022-12-25T02:33:11.086Z,80.58
2022-12-25T02:35:38.717Z,79.66
2022-12-25T02:38:13.147Z,79.46
2022-12-25T02:40:45.471Z,80.10
2022-12-25T02:43:19.250Z,79.89
2022-12-25T02:45:52.235Z,79.35
2022-12-25T02:48:26.294Z,79.65
2022-12-25T02:50:55.843Z,80.90
2022-12-25T02:53:23.822Z,81.70
2022-12-25T02:55:53.155Z,82.21
2022-12-25T02:58:24.830Z,82.28
2022-12-25T03:00:59.392Z,82.51
2022-12-25T03:03:32.356Z,82.73
2022-12-25T03:06:02.037Z,82.23
2022-12-25T03:08:34.861Z,81.09
2022-12-25T03:11:04.602Z,79.88
2022-12-25T03:13:39.941Z,77.80
2022-12-25T03:16:08.238Z,76.91
2022-12-25T03:18:36.185Z,76.39
2022-12-25T03:21:03.833Z,75.01
2022-12-25T03:23:34.822Z,74.86
2022-12-25T03:26:02.396Z,74.66
2022-12-25T03:28:30.439Z,74.35
2022-12-25T03:31:11.637Z,74.64
2022-12-25T03:34:09.049Z,74.28
2022-12-25T03:36:48.118Z,75.19
2022-12-25T03:39:26.839Z,74.72
2022-12-25T03:42:00.695Z,75.45
2022-12-25T03:44:37.041Z,76.07
2022-12-25T03:47:15.562Z,75.74
2022-12-25T03:49:45.969Z,75.91
2022-12-25T03:52:16.373Z,74.97
2022-12-25T03:54:47.673Z,74.98
2022-12-25T03:57:15.559Z,75.60
2022-12-25T03:59:43.670Z,76.96
2022-12-25T04:02:13.018Z,79.68
2022-12-25T04:04:40.581Z,80.46
2022-12-25T04:07:08.553Z,79.68
2022-12-25T04:09:36.079Z,80.15
2022-12-25T04:12:04.620Z,79.06
2022-12-25T04:14:32.177Z,78.95
2022-12-25T04:17:00.133Z,78.40
2022-12-25T04:19:29.307Z,77.87
2022-12-25T04:21:57.331Z,78.19
2022-12-25T04:24:24.883Z,77.09
2022-12-25T04:26:53.326Z,77.31
2022-12-25T04:29:21.084Z,74.65
2022-12-25T04:31:50.933Z,77.49
2022-12-25T04:34:18.538Z,81.02
2022-12-25T04:36:48.109Z,80.98
2022-12-25T04:39:15.697Z,79.98
2022-12-25T04:41:43.524Z,79.70
2022-12-25T04:44:11.081Z,80.25
2022-12-25T04:46:39.458Z,81.09
2022-12-25T04:49:07.235Z,81.15
2022-12-25T04:51:36.960Z,80.82
2022-12-25T04:54:06.145Z,80.24
2022-12-25T04:56:35.039Z,80.91
2022-12-25T04:59:04.983Z,80.87
2022-12-25T05:01:32.984Z,80.63
2022-12-25T05:04:00.929Z,79.92
2022-12-25T05:06:28.845Z,78.78
2022-12-25T05:08:56.446Z,79.68
2022-12-25T05:11:25.781Z,79.98
2022-12-25T05:13:53.289Z,79.27
2022-12-25T05:16:21.511Z,79.48
2022-12-25T05:18:52.030Z,79.62
2022-12-25T05:21:20.670Z,79.85
2022-12-25T05:23:50.738Z,81.08
2022-12-25T05:26:20.770Z,80.43
2022-12-25T05:28:50.358Z,80.69
2022-12-25T05:31:19.182Z,81.35
2022-12-25T05:33:49.953Z,81.30
2022-12-25T05:36:18.722Z,81.86
2022-12-25T05:38:46.332Z,83.08
2022-12-25T05:41:14.198Z,83.16
2022-12-25T05:43:41.938Z,82.63
2022-12-25T05:46:13.314Z,82.04
2022-12-25T05:48:41.123Z,82.04
2022-12-25T05:51:11.447Z,82.07
2022-12-25T05:53:40.083Z,81.90
2022-12-25T05:56:09.305Z,80.93
2022-12-25T05:58:38.491Z,79.77
2022-12-25T06:01:13.121Z,79.74
2022-12-25T06:03:40.744Z,79.62
2022-12-25T06:06:08.883Z,79.35
2022-12-25T06:08:36.442Z,79.46
2022-12-25T06:11:05.472Z,77.33
2022-12-25T06:13:33.498Z,77.96
2022-12-25T06:16:04.151Z,77.99
2022-12-25T06:18:35.312Z,78.33
2022-12-25T06:21:07.178Z,80.02
2022-12-25T06:23:34.786Z,80.77
2022-12-25T06:26:04.538Z,81.08
2022-12-25T06:28:32.325Z,80.13
2022-12-25T06:31:05.296Z,80.46
2022-12-25T06:33:35.816Z,80.86
2022-12-25T06:36:08.854Z,80.34
2022-12-25T06:38:36.701Z,79.13
2022-12-25T06:41:06.261Z,78.32
2022-12-25T06:43:33.844Z,79.63
2022-12-25T06:46:06.429Z,80.23
2022-12-25T06:48:36.721Z,80.44
2022-12-25T06:51:06.065Z,79.60
2022-12-25T06:53:40.607Z,78.53
2022-12-25T06:56:11.395Z,78.55
2022-12-25T06:58:39.162Z,79.49
2022-12-25T07:01:08.867Z,83.42
2022-12-25T07:03:37.765Z,83.45
2022-12-25T07:06:06.421Z,83.62
2022-12-25T07:08:34.181Z,82.93
2022-12-25T07:11:04.212Z,82.93
2022-12-25T07:13:31.751Z,82.52
2022-12-25T07:16:01.721Z,82.51
2022-12-25T07:18:30.071Z,81.61
2022-12-25T07:20:59.499Z,81.20
2022-12-25T07:23:27.520Z,81.83
2022-12-25T07:25:56.477Z,81.62
2022-12-25T07:28:24.218Z,81.13
2022-12-25T07:30:52.227Z,81.60
2022-12-25T07:33:20.222Z,82.54
2022-12-25T07:35:48.267Z,82.49
2022-12-25T07:38:17.449Z,82.24
2022-12-25T07:40:46.292Z,82.19
2022-12-25T07:43:14.033Z,81.72
2022-12-25T07:45:42.137Z,80.71
2022-12-25T07:48:16.280Z,80.46
2022-12-25T07:50:44.691Z,80.80
2022-12-25T07:53:12.181Z,80.31
2022-12-25T07:55:41.711Z,81.08
2022-12-25T07:58:09.215Z,80.83
2022-12-25T08:00:37.188Z,80.96
2022-12-25T08:03:04.927Z,80.54
2022-12-25T08:05:33.232Z,79.14
2022-12-25T08:08:01.002Z,78.06
2022-12-25T08:10:29.088Z,77.26
2022-12-25T08:12:58.033Z,76.57
2022-12-25T08:15:25.907Z,77.26
2022-12-25T08:17:53.472Z,77.85
2022-12-25T08:20:21.340Z,78.71
2022-12-25T08:22:49.029Z,79.59
2022-12-25T08:25:16.926Z,79.69
2022-12-25T08:27:44.476Z,80.42
2022-12-25T08:30:14.368Z,80.16
2022-12-25T08:32:42.014Z,78.37
2022-12-25T08:35:10.384Z,77.46
2022-12-25T08:37:37.882Z,75.15
2022-12-25T08:40:07.149Z,75.49
2022-12-25T08:42:34.711Z,75.43
2022-12-25T08:45:03.109Z,75.67
2022-12-25T08:47:32.162Z,75.87
2022-12-25T08:50:00.097Z,75.16
2022-12-25T08:52:28.545Z,74.72
2022-12-25T08:54:56.407Z,73.54
2022-12-25T08:57:24.019Z,73.74
2022-12-25T08:59:52.038Z,72.06
2022-12-25T09:02:19.730Z,73.39
2022-12-25T09:04:49.440Z,72.06
2022-12-25T09:07:16.930Z,70.66
2022-12-25T09:09:44.938Z,68.86
2022-12-25T09:12:12.442Z,69.10
2022-12-25T09:14:40.431Z,70.17
2022-12-25T09:17:08.236Z,69.92
2022-12-25T09:19:36.319Z,66.70
2022-12-25T09:22:05.548Z,67.77
2022-12-25T09:24:33.516Z,69.67
2022-12-25T09:27:01.014Z,72.19
2022-12-25T09:29:29.170Z,72.18
2022-12-25T09:31:56.725Z,71.27
2022-12-25T09:34:24.716Z,72.05
2022-12-25T09:36:52.318Z,70.73
2022-12-25T09:39:21.681Z,70.90
2022-12-25T09:41:55.728Z,70.80
2022-12-25T09:44:27.887Z,70.82
2022-12-25T09:47:01.658Z,70.28
2022-12-25T09:49:37.753Z,71.55
2022-12-25T09:52:10.037Z,71.26
2022-12-25T09:54:46.898Z,71.39
2022-12-25T09:57:15.257Z,71.71
2022-12-25T09:59:44.331Z,72.47
2022-12-25T10:02:47.007Z,72.78
2022-12-25T10:05:30.220Z,74.31
2022-12-25T10:08:06.946Z,72.53
2022-12-25T10:10:49.680Z,72.65
2022-12-25T10:13:53.283Z,72.14
2022-12-25T10:16:34.296Z,71.72
2022-12-25T10:19:15.593Z,72.50
2022-12-25T10:21:43.745Z,71.94
2022-12-25T10:24:20.566Z,72.04
2022-12-25T10:26:54.720Z,71.67
2022-12-25T10:29:22.385Z,72.31
2022-12-25T10:31:54.793Z,71.60
2022-12-25T10:34:23.327Z,71.09
2022-12-25T10:36:51.555Z,70.98
2022-12-25T10:39:22.681Z,71.18
2022-12-25T10:42:05.478Z,70.02
2022-12-25T10:44:33.136Z,70.42
2022-12-25T10:47:03.219Z,69.76
2022-12-25T10:49:33.147Z,68.89
2022-12-25T10:52:01.555Z,70.15
2022-12-25T10:54:31.222Z,69.57
2022-12-25T10:57:02.563Z,70.51
2022-12-25T10:59:34.894Z,70.29
2022-12-25T11:02:11.601Z,69.47
2022-12-25T11:04:39.401Z,69.47
2022-12-25T11:07:14.091Z,68.14
2022-12-25T11:09:50.114Z,69.13
2022-12-25T11:12:21.887Z,67.60
2022-12-25T11:14:54.266Z,67.01
2022-12-25T11:17:24.437Z,66.15
2022-12-25T11:19:53.368Z,66.55
2022-12-25T11:22:21.657Z,66.49
2022-12-25T11:24:51.399Z,67.17
2022-12-25T11:27:25.280Z,66.60
2022-12-25T11:29:57.831Z,65.97
2022-12-25T11:32:33.369Z,66.34
2022-12-25T11:35:02.733Z,66.54
2022-12-25T11:37:35.683Z,65.72
2022-12-25T11:40:04.011Z,64.74
2022-12-25T11:42:36.723Z,64.41
2022-12-25T11:45:10.776Z,65.62
2022-12-25T11:47:44.571Z,64.62
2022-12-25T11:50:22.180Z,64.35
2022-12-25T11:52:52.048Z,63.82
2022-12-25T11:55:25.961Z,64.79
2022-12-25T11:57:59.068Z,64.81
2022-12-25T12:00:29.747Z,64.83
2022-12-25T12:03:02.391Z,64.52
2022-12-25T12:05:35.560Z,64.18
2022-12-25T12:08:05.934Z,62.32
2022-12-25T12:10:42.781Z,63.94
2022-12-25T12:13:25.222Z,63.11
2022-12-25T12:15:52.853Z,62.93
2022-12-25T12:18:23.091Z,62.42
2022-12-25T12:21:05.800Z,62.17
2022-12-25T12:23:36.904Z,61.88
2022-12-25T12:26:04.950Z,61.65
2022-12-25T12:28:44.199Z,61.99
2022-12-25T12:31:12.300Z,62.75
2022-12-25T12:33:44.078Z,62.53
2022-12-25T12:36:13.916Z,62.41
2022-12-25T12:38:44.185Z,62.72
2022-12-25T12:41:13.743Z,63.48
2022-12-25T12:43:46.616Z,65.43
2022-12-25T12:46:26.193Z,67.10
2022-12-25T12:49:09.793Z,68.42
2022-12-25T12:51:38.056Z,68.17
2022-12-25T12:54:19.855Z,68.09
2022-12-25T12:56:59.072Z,68.45
2022-12-25T12:59:37.202Z,68.68
2022-12-25T13:02:22.537Z,68.09
2022-12-25T13:04:56.319Z,68.22
2022-12-25T13:07:48.691Z,68.55
2022-12-25T13:10:25.389Z,68.40
2022-12-25T13:12:55.201Z,66.98
2022-12-25T13:15:28.551Z,66.10
2022-12-25T13:17:59.466Z,65.70
2022-12-25T13:20:40.145Z,65.96
2022-12-25T13:23:24.829Z,66.46
2022-12-25T13:25:57.535Z,67.31
2022-12-25T13:28:26.629Z,67.76
2022-12-25T13:31:02.442Z,67.00
2022-12-25T13:33:30.557Z,67.21
2022-12-25T13:35:58.715Z,67.46
2022-12-25T13:38:31.144Z,68.19
2022-12-25T13:40:59.509Z,68.06
2022-12-25T13:43:27.099Z,67.92
2022-12-25T13:45:57.131Z,67.68
2022-12-25T13:48:24.719Z,67.98
2022-12-25T13:50:57.549Z,68.27
2022-12-25T13:53:24.715Z,68.06
2022-12-25T13:55:55.209Z,67.95
2022-12-25T13:58:27.445Z,68.42
2022-12-25T14:00:58.753Z,68.79
2022-12-25T14:03:31.624Z,68.20
2022-12-25T14:06:01.709Z,67.95
2022-12-25T14:08:31.888Z,68.30
2022-12-25T14:11:04.514Z,68.91
2022-12-25T14:13:35.880Z,70.17
2022-12-25T14:16:06.501Z,71.24
2022-12-25T14:18:34.398Z,72.54
2022-12-25T14:21:04.777Z,72.15
2022-12-25T14:23:41.805Z,72.00
2022-12-25T14:26:16.376Z,71.57
2022-12-25T14:28:47.951Z,73.05
2022-12-25T14:31:21.592Z,73.78
2022-12-25T14:33:50.158Z,74.60
2022-12-25T14:36:19.081Z,74.12
2022-12-25T14:38:57.134Z,74.10
2022-12-25T14:41:29.799Z,74.27
2022-12-25T14:43:57.397Z,74.77
2022-12-25T14:46:29.080Z,75.74
2022-12-25T14:49:01.247Z,76.16
2022-12-25T14:51:30.804Z,75.70
2022-12-25T14:54:01.910Z,75.20
2022-12-25T14:56:32.094Z,74.63
2022-12-25T14:59:00.307Z,74.43
2022-12-25T15:01:33.779Z,75.68
2022-12-25T15:04:07.750Z,75.49
2022-12-25T15:06:37.101Z,76.18
2022-12-25T15:09:06.755Z,76.38
2022-12-25T15:11:34.771Z,76.50
2022-12-25T15:14:05.276Z,75.90
2022-12-25T15:16:42.070Z,76.02
2022-12-25T15:19:13.088Z,76.59
2022-12-25T15:21:41.115Z,77.42
2022-12-25T15:24:12.719Z,77.64
2022-12-25T15:26:41.039Z,77.82
2022-12-25T15:29:09.099Z,78.26
2022-12-25T15:31:39.709Z,79.03
2022-12-25T15:34:15.549Z,78.62
2022-12-25T15:36:43.813Z,78.92
2022-12-25T15:39:11.305Z,79.20
2022-12-25T15:41:40.229Z,79.04
2022-12-25T15:44:08.284Z,79.71
2022-12-25T15:46:36.299Z,79.38
2022-12-25T15:49:05.725Z,79.62
2022-12-25T15:51:34.120Z,80.39
2022-12-25T15:54:01.636Z,80.60
2022-12-25T15:56:30.484Z,81.52
2022-12-25T15:58:57.960Z,81.04
2022-12-25T16:01:27.684Z,80.99
2022-12-25T16:03:55.222Z,81.46
2022-12-25T16:06:26.278Z,81.64
2022-12-25T16:08:53.718Z,81.86
2022-12-25T16:11:21.626Z,82.10
2022-12-25T16:13:49.173Z,81.91
2022-12-25T16:16:17.075Z,82.04
2022-12-25T16:18:47.772Z,82.39
2022-12-25T16:21:19.043Z,82.10
2022-12-25T16:23:48.415Z,82.10
2022-12-25T16:26:16.845Z,82.21
2022-12-25T16:28:44.352Z,81.94
2022-12-25T16:31:12.490Z,81.95
2022-12-25T16:33:40.062Z,81.86
2022-12-25T16:36:09.000Z,82.14
2022-12-25T16:38:36.628Z,82.01
2022-12-25T16:41:06.174Z,81.74
2022-12-25T16:43:33.714Z,81.75
2022-12-25T16:46:01.845Z,81.68
2022-12-25T16:48:29.640Z,81.73
2022-12-25T16:50:57.571Z,81.72
2022-12-25T16:53:25.184Z,81.42
2022-12-25T16:55:53.251Z,81.45
2022-12-25T16:58:25.251Z,81.18
2022-12-25T17:00:53.816Z,80.98
2022-12-25T17:03:21.379Z,80.27
2022-12-25T17:05:49.661Z,80.12
2022-12-25T17:08:17.402Z,80.15
2022-12-25T17:10:45.401Z,80.29
2022-12-25T17:13:12.950Z,80.61
2022-12-25T17:15:48.359Z,80.94
2022-12-25T17:18:17.925Z,81.14
2022-12-25T17:20:50.504Z,81.45
2022-12-25T17:23:18.062Z,82.17
2022-12-25T17:25:46.312Z,82.32
2022-12-25T17:28:14.155Z,82.16
2022-12-25T17:30:43.678Z,82.25
2022-12-25T17:33:13.872Z,81.85
2022-12-25T17:35:41.773Z,81.66
2022-12-25T17:38:09.393Z,81.62
2022-12-25T17:40:37.346Z,81.33
2022-12-25T17:43:04.954Z,81.84
2022-12-25T17:45:32.840Z,81.87
2022-12-25T17:48:01.958Z,82.11
2022-12-25T17:50:31.828Z,81.84
2022-12-25T17:53:02.014Z,81.68
2022-12-25T17:55:30.118Z,81.50
2022-12-25T17:57:57.979Z,81.86
2022-12-25T18:00:25.943Z,81.34
2022-12-25T18:02:53.934Z,81.91
2022-12-25T18:05:23.869Z,81.72
2022-12-25T18:07:51.525Z,81.56
2022-12-25T18:10:19.710Z,81.32
2022-12-25T18:12:47.351Z,81.36
2022-12-25T18:15:15.357Z,81.20
2022-12-25T18:17:42.951Z,80.74
2022-12-25T18:20:11.422Z,80.27
2022-12-25T18:22:40.649Z,80.12
2022-12-25T18:25:09.443Z,79.74
2022-12-25T18:27:37.043Z,79.96
2022-12-25T18:30:06.263Z,79.86
2022-12-25T18:32:34.037Z,79.55
2022-12-25T18:35:02.434Z,79.29
2022-12-25T18:37:33.155Z,78.99
2022-12-25T18:40:08.873Z,78.68
2022-12-25T18:42:36.690Z,78.34
2022-12-25T18:45:05.509Z,78.90
2022-12-25T18:47:33.740Z,78.65
2022-12-25T18:50:02.085Z,78.37
2022-12-25T18:52:47.436Z,78.12
2022-12-25T18:55:19.833Z,77.74
2022-12-25T18:57:48.057Z,78.06
2022-12-25T19:00:16.604Z,77.97
2022-12-25T19:02:44.359Z,78.44
2022-12-25T19:05:12.547Z,78.50
2022-12-25T19:07:40.357Z,78.12
2022-12-25T19:10:09.381Z,77.89
2022-12-25T19:12:38.627Z,77.67
2022-12-25T19:15:07.554Z,77.68
2022-12-25T19:17:35.193Z,77.80
2022-12-25T19:20:03.451Z,78.11
2022-12-25T19:22:31.329Z,78.18
2022-12-25T19:24:59.295Z,78.08
2022-12-25T19:27:26.991Z,78.37
2022-12-25T19:29:56.508Z,78.79
2022-12-25T19:32:24.105Z,78.96
2022-12-25T19:34:52.039Z,79.31
2022-12-25T19:37:19.585Z,79.66
2022-12-25T19:39:47.738Z,79.85
2022-12-25T19:42:16.354Z,80.03
2022-12-25T19:44:44.507Z,79.53
2022-12-25T19:47:13.702Z,79.71
2022-12-25T19:49:43.861Z,79.28
2022-12-25T19:52:12.838Z,79.20
2022-12-25T19:54:40.764Z,79.58
2022-12-25T19:57:08.361Z,79.77
2022-12-25T19:59:36.607Z,79.43
2022-12-25T20:02:04.279Z,79.05
2022-12-25T20:04:33.828Z,78.96
2022-12-25T20:07:01.550Z,79.09
2022-12-25T20:09:29.582Z,79.11
2022-12-25T20:11:57.470Z,78.92
2022-12-25T20:14:25.772Z,78.72
2022-12-25T20:16:53.580Z,78.74
2022-12-25T20:19:21.730Z,78.92
2022-12-25T20:21:50.842Z,78.66
2022-12-25T20:24:18.795Z,79.09
2022-12-25T20:26:48.036Z,79.25
2022-12-25T20:29:17.227Z,78.89
2022-12-25T20:31:44.853Z,78.08
2022-12-25T20:34:12.932Z,78.89
2022-12-25T20:36:40.677Z,79.31
2022-12-25T20:39:12.615Z,79.11
2022-12-25T20:41:40.852Z,78.71
2022-12-25T20:44:09.622Z,79.20
2022-12-25T20:46:37.683Z,79.45
2022-12-25T20:49:05.805Z,79.52
2022-12-25T20:51:33.662Z,79.63
2022-12-25T20:54:06.200Z,79.82
2022-12-25T20:56:35.557Z,79.99
2022-12-25T20:59:03.642Z,80.47
2022-12-25T21:01:31.585Z,80.39
2022-12-25T21:04:00.025Z,80.86
2022-12-25T21:06:27.713Z,79.73
2022-12-25T21:08:55.712Z,79.95
2022-12-25T21:11:23.413Z,79.55
2022-12-25T21:13:53.204Z,80.21
2022-12-25T21:16:22.598Z,80.51
2022-12-25T21:18:52.622Z,80.62
2022-12-25T21:21:21.304Z,80.79
2022-12-25T21:23:49.265Z,81.11
2022-12-25T21:26:18.520Z,81.37
2022-12-25T21:28:49.136Z,81.36
2022-12-25T21:31:19.852Z,81.34
2022-12-25T21:33:47.945Z,81.39
2022-12-25T21:36:15.582Z,81.11
2022-12-25T21:38:43.603Z,82.15
2022-12-25T21:41:12.591Z,81.34
2022-12-25T21:43:41.483Z,80.29
2022-12-25T21:46:12.669Z,79.97
2022-12-25T21:48:42.794Z,80.12
2022-12-25T21:51:14.085Z,79.95
2022-12-25T21:53:45.264Z,81.12
2022-12-25T21:56:12.840Z,81.50
2022-12-25T21:58:40.857Z,82.44
2022-12-25T22:01:09.161Z,83.33
2022-12-25T22:03:37.933Z,83.96
2022-12-25T22:06:10.024Z,84.07
2022-12-25T22:08:37.688Z,84.32
2022-12-25T22:11:05.484Z,84.22
2022-12-25T22:13:33.397Z,84.38
2022-12-25T22:16:04.003Z,84.55
2022-12-25T22:18:31.998Z,84.69
2022-12-25T22:20:59.508Z,85.17
2022-12-25T22:23:28.904Z,84.83
2022-12-25T22:25:56.365Z,85.34
2022-12-25T22:28:24.425Z,85.09
2022-12-25T22:30:52.059Z,85.58
2022-12-25T22:33:20.115Z,86.09
2022-12-25T22:35:47.599Z,86.30
2022-12-25T22:38:15.475Z,86.03
2022-12-25T22:40:44.482Z,85.95
2022-12-25T22:43:12.496Z,86.63
2022-12-25T22:45:40.012Z,86.22
2022-12-25T22:48:08.270Z,86.23
2022-12-25T22:50:35.718Z,86.07
2022-12-25T22:53:06.823Z,85.40
2022-12-25T22:55:34.417Z,85.53
2022-12-25T22:58:03.840Z,85.06
2022-12-25T23:00:31.529Z,86.14
2022-12-25T23:02:59.906Z,85.64
2022-12-25T23:05:27.693Z,85.27
2022-12-25T23:07:55.753Z,85.40
2022-12-25T23:10:23.473Z,85.42
2022-12-25T23:12:51.431Z,85.41
2022-12-25T23:15:21.181Z,85.04
2022-12-25T23:17:49.061Z,85.09
2022-12-25T23:20:16.607Z,85.74
2022-12-25T23:22:44.996Z,86.04
2022-12-25T23:25:15.483Z,85.78
2022-12-25T23:27:43.811Z,86.43
2022-12-25T23:30:13.478Z,86.50
2022-12-25T23:32:44.085Z,86.00
2022-12-25T23:35:12.391Z,86.03
2022-12-25T23:37:40.628Z,85.50
2022-12-25T23:40:09.917Z,85.31
2022-12-25T23:42:38.002Z,84.52
2022-12-25T23:45:06.333Z,84.32
2022-12-25T23:47:34.173Z,85.05
2022-12-25T23:50:03.551Z,84.91
2022-12-25T23:52:31.465Z,85.37
2022-12-25T23:54:58.994Z,85.08
2022-12-25T23:57:27.036Z,84.96
2022-12-25T23:59:54.570Z,84.44
